الصفحة الرئيسية
METAR-TAF:

METAR-TAF

مطار :

السلفادور, السلفادور

دائرة عرض: 13-26N, خط طول: 089-03W, ارتفاع: 25 متر

مراقبة الطقس الحالي

تاريخ ووقت الإصدار 1ساعة و 3 دقيقة قبل الساعة 11:50UTC
ريح 8 عقدة من الشمال/الشمال الشرقي
درجة الحرارة 24°درجة مئوية
الرطوبة 74%
ضغط 1011 hPa
الرؤية 10 كم أو أكثر
الغيوم لا تقل 1500 م ولا وجود لمزنة ركامية السحاب الأسود

METAR: MSLP 201150Z 03008KT CAVOK 24/19 Q1011 A2986 NOSIG

زمن: 06:53 (12:53 UTC)

توقعات

تاريخ ووقت الإصدار 3ساعات و 28 دقيقة قبل الساعة 09:25UTC
التوقعات صالحة من20 الساعة 12 UTC إلى 21 الساعة 12 UTC
ريح 8 عقدة من الشمال/الشمال الشرقي تتزايد حتى 18 عقدة
الرؤية 10 كم أو أكثر
الغيوم لا تقل 1500 م ولا وجود لمزنة ركامية السحاب الأسود
مؤقت
من 20 الساعة 19 UTC إلى 21 الساعة 01 UTC
ريح 8 عقدة من الجنوب/الجنوب الغربي
الرؤية 10 كم أو أكثر
غيوم قليلة على ارتفاع 6000 قدم
من 21 الساعة 0100 UTC
ريح 7 عقدة من الشمال/الشمال الشرقي
الرؤية 10 كم أو أكثر
الغيوم لا تقل 1500 م ولا وجود لمزنة ركامية السحاب الأسود

TAF: MSLP 200925Z 2012/2112 03008G18KT CAVOK TX34/2018Z TN23/2112Z TEMPO 2019/2101 20008KT 9999 FEW060 FM210100 02007KT CAVOK

أرصاد الطقس والتوقعات من أكثر من 4000 مطار (تقارير الطقس للمطار METAR والتنبؤ بالطقس بالمطارTAF).

المحطات المتاحة هي النقط الصفراء والحمراء على الخريطة.

حرك المؤشر فوق النقطة لمعرفة اسم المحطة.

ثم انقر لمعرفة أرصاد وتوقعات الطقس.

لتغيير الخارطة: اضغط على الأزرار الخضراء مع رمز الصليب الأسود للتكبير. على الزر الأخضر مع شرطة للتصغير، أو على الأسهم الخضراء للخرائط المجاورة.


METAR-TAF: